Time;durP1;ratioP1;P1;durP2;ratioP2;P2;SDS_P1;SDS_P2;PMS_P1;PMS_P2;Temp;Humidity;BMP_temperature;BMP_pressure;BME280_temperature;BME280_humidity;BME280_pressure;Samples;Min_cycle;Max_cycle;Signal;HPM_P1;HPM_P2
2021/10/23 00:01:49;;;;;;;4.47;2.43;;;8.10;99.90;;;;;;5091792;28;20796;-61
2021/10/23 00:04:18;;;;;;;4.33;3.10;;;8.10;99.90;;;;;;5109427;28;20445;-61
2021/10/23 00:06:45;;;;;;;3.17;2.87;;;8.10;99.90;;;;;;5105909;28;20455;-61
2021/10/23 00:09:13;;;;;;;5.20;3.20;;;8.10;99.90;;;;;;5080596;28;20461;-61
2021/10/23 00:11:40;;;;;;;3.10;2.80;;;8.10;99.90;;;;;;5091918;28;20482;-61
2021/10/23 00:14:07;;;;;;;5.20;2.80;;;8.10;99.90;;;;;;5093269;28;20448;-61
2021/10/23 00:16:34;;;;;;;6.27;2.50;;;8.10;99.90;;;;;;5091272;28;20534;-61
2021/10/23 00:19:01;;;;;;;5.23;2.63;;;8.00;99.90;;;;;;5108018;28;20449;-61
2021/10/23 00:21:28;;;;;;;7.90;3.20;;;8.00;99.90;;;;;;5112341;28;20450;-60
2021/10/23 00:23:55;;;;;;;3.00;2.30;;;8.00;99.90;;;;;;5097883;28;20466;-61
2021/10/23 00:26:24;;;;;;;4.20;2.43;;;8.00;99.90;;;;;;5073745;28;20473;-60
2021/10/23 00:28:51;;;;;;;4.83;3.13;;;7.90;99.90;;;;;;5095894;28;20503;-61
2021/10/23 00:31:18;;;;;;;7.53;2.50;;;8.00;99.90;;;;;;5084700;28;20478;-60
2021/10/23 00:33:45;;;;;;;3.20;1.80;;;7.90;99.90;;;;;;5071912;28;20468;-61
2021/10/23 00:36:12;;;;;;;3.27;1.80;;;7.90;99.90;;;;;;5071641;28;20519;-60
2021/10/23 00:38:39;;;;;;;2.77;2.03;;;7.90;99.90;;;;;;5080277;28;20536;-61
2021/10/23 00:41:06;;;;;;;3.30;2.30;;;7.90;99.90;;;;;;5095666;28;20470;-61
2021/10/23 00:43:40;;;;;;;4.17;2.40;;;7.90;99.90;;;;;;5091874;28;20479;-61
2021/10/23 00:46:08;;;;;;;4.10;1.97;;;7.80;99.90;;;;;;5086595;28;20526;-61
2021/10/23 00:48:35;;;;;;;4.23;1.70;;;7.70;99.90;;;;;;5071557;28;20500;-61
2021/10/23 00:51:02;;;;;;;3.23;2.00;;;7.60;99.90;;;;;;5080900;28;20485;-61
2021/10/23 00:53:29;;;;;;;4.07;1.90;;;7.70;99.90;;;;;;5084380;28;20448;-61
2021/10/23 00:55:56;;;;;;;6.53;2.00;;;7.70;99.90;;;;;;5091621;28;20477;-60
2021/10/23 00:58:23;;;;;;;5.33;2.90;;;7.60;99.90;;;;;;5099443;28;21027;-61
2021/10/23 01:00:52;;;;;;;4.80;2.63;;;7.60;99.90;;;;;;5091037;28;20521;-61
2021/10/23 01:03:19;;;;;;;5.70;2.37;;;7.60;99.90;;;;;;5094959;28;20808;-61
2021/10/23 01:05:46;;;;;;;5.70;1.90;;;7.70;99.90;;;;;;5112029;28;20475;-61
2021/10/23 01:08:14;;;;;;;2.80;1.93;;;7.70;99.90;;;;;;5111991;28;20465;-61
2021/10/23 01:10:41;;;;;;;6.43;2.53;;;7.70;99.90;;;;;;5111642;28;20441;-61
2021/10/23 01:13:08;;;;;;;3.60;1.83;;;7.70;99.90;;;;;;5110228;28;20450;-61
2021/10/23 01:15:36;;;;;;;4.03;2.10;;;7.70;99.90;;;;;;5089407;28;20469;-61
2021/10/23 01:18:07;;;;;;;4.93;2.20;;;7.60;99.90;;;;;;5082104;28;20449;-61
2021/10/23 01:20:36;;;;;;;4.17;2.00;;;7.60;99.90;;;;;;5091294;28;20445;-60
2021/10/23 01:23:03;;;;;;;4.73;2.00;;;7.60;99.90;;;;;;5095521;28;20806;-60
2021/10/23 01:25:32;;;;;;;3.80;1.93;;;7.60;99.90;;;;;;5096391;28;20481;-61
2021/10/23 01:28:01;;;;;;;3.50;1.70;;;7.60;99.90;;;;;;5095312;28;20480;-61
2021/10/23 01:30:28;;;;;;;4.80;1.90;;;7.60;99.90;;;;;;5094316;28;20456;-61
2021/10/23 01:32:57;;;;;;;3.80;2.20;;;7.60;99.90;;;;;;5088681;28;20491;-61
2021/10/23 01:35:25;;;;;;;3.87;2.00;;;7.60;99.90;;;;;;5076836;28;20466;-61
2021/10/23 01:37:55;;;;;;;6.83;2.50;;;7.50;99.90;;;;;;5115552;28;20877;-61
2021/10/23 01:40:24;;;;;;;2.33;1.73;;;7.50;99.90;;;;;;5113541;28;21192;-61
2021/10/23 01:42:51;;;;;;;6.43;1.80;;;7.40;99.90;;;;;;5114737;28;20446;-61
2021/10/23 01:45:18;;;;;;;3.33;1.80;;;7.40;99.90;;;;;;5074976;28;20474;-61
2021/10/23 01:47:46;;;;;;;4.87;1.90;;;7.40;99.90;;;;;;5074212;28;20447;-61
2021/10/23 01:50:15;;;;;;;3.30;2.00;;;7.30;99.90;;;;;;5093566;28;20456;-61
2021/10/23 01:52:42;;;;;;;4.43;2.00;;;7.30;99.90;;;;;;5094717;28;20991;-60
2021/10/23 01:55:11;;;;;;;3.50;1.90;;;7.20;99.90;;;;;;5104952;28;20505;-61
2021/10/23 01:57:40;;;;;;;3.57;2.07;;;7.20;99.90;;;;;;5080356;28;20443;-60
2021/10/23 02:00:08;;;;;;;5.00;2.33;;;7.10;99.90;;;;;;5075571;28;20486;-61
2021/10/23 02:02:35;;;;;;;3.30;2.20;;;7.00;99.90;;;;;;5087671;28;20471;-61
2021/10/23 02:05:03;;;;;;;4.07;2.33;;;6.90;99.90;;;;;;5101212;28;20869;-61
2021/10/23 02:07:30;;;;;;;4.30;2.20;;;7.00;99.90;;;;;;5114942;28;20437;-61
2021/10/23 02:09:57;;;;;;;6.73;2.33;;;6.90;99.90;;;;;;5114782;28;20536;-61
2021/10/23 02:12:26;;;;;;;5.83;2.30;;;6.90;99.90;;;;;;5098719;28;20892;-60
2021/10/23 02:14:53;;;;;;;7.40;2.50;;;6.90;99.90;;;;;;5094347;28;20475;-61
2021/10/23 02:17:20;;;;;;;4.07;2.60;;;6.80;99.90;;;;;;5095478;28;20450;-61
2021/10/23 02:19:47;;;;;;;3.80;2.43;;;6.60;99.90;;;;;;5094246;28;20457;-61
2021/10/23 02:22:14;;;;;;;4.40;2.60;;;6.70;99.90;;;;;;5103122;28;20498;-61
2021/10/23 02:24:41;;;;;;;2.80;2.20;;;6.80;99.90;;;;;;5100656;28;20991;-61
2021/10/23 02:27:08;;;;;;;4.63;2.70;;;6.80;99.90;;;;;;5087876;28;20806;-61
2021/10/23 02:29:36;;;;;;;4.70;2.80;;;6.70;99.90;;;;;;5094297;28;20484;-61
2021/10/23 02:32:04;;;;;;;4.20;2.60;;;6.70;99.90;;;;;;5093688;28;20485;-61
2021/10/23 02:34:31;;;;;;;4.30;2.70;;;6.50;99.90;;;;;;5093545;28;21175;-61
2021/10/23 02:36:58;;;;;;;4.00;2.23;;;6.50;99.90;;;;;;5095121;28;20446;-60
2021/10/23 02:39:25;;;;;;;3.43;2.67;;;6.50;99.90;;;;;;5093930;28;20491;-60
2021/10/23 02:41:52;;;;;;;3.83;2.40;;;6.50;99.90;;;;;;5097242;28;20441;-60
2021/10/23 02:44:19;;;;;;;5.20;2.40;;;6.50;99.90;;;;;;5092838;28;20446;-61
2021/10/23 02:46:47;;;;;;;3.90;2.30;;;6.40;99.90;;;;;;5093559;28;20450;-60
2021/10/23 02:49:15;;;;;;;6.90;3.20;;;6.40;99.90;;;;;;5093728;28;20475;-61
2021/10/23 02:51:42;;;;;;;5.90;3.10;;;6.20;99.90;;;;;;5093595;28;20478;-60
2021/10/23 02:54:09;;;;;;;5.10;2.50;;;6.00;99.90;;;;;;5093776;28;20451;-60
2021/10/23 02:56:36;;;;;;;6.93;3.00;;;5.70;99.90;;;;;;5075757;28;20447;-60
2021/10/23 02:59:04;;;;;;;5.03;2.83;;;5.20;99.90;;;;;;5084651;28;20447;-60
2021/10/23 03:01:31;;;;;;;5.73;3.30;;;5.00;99.90;;;;;;5093300;28;20450;-59
2021/10/23 03:03:59;;;;;;;3.10;2.57;;;5.10;99.90;;;;;;5093502;28;20453;-60
2021/10/23 03:06:26;;;;;;;4.73;3.10;;;5.30;99.90;;;;;;5093258;28;21014;-60
2021/10/23 03:08:54;;;;;;;4.97;2.73;;;5.50;99.90;;;;;;5092462;28;20476;-60
2021/10/23 03:11:21;;;;;;;6.50;3.10;;;5.60;99.90;;;;;;5093151;28;20491;-60
2021/10/23 03:13:48;;;;;;;3.53;2.50;;;5.70;99.90;;;;;;5087876;28;20454;-61
2021/10/23 03:16:15;;;;;;;5.00;3.20;;;5.70;99.90;;;;;;5072829;28;20474;-60
2021/10/23 03:18:42;;;;;;;4.03;3.23;;;5.70;99.90;;;;;;5072971;28;20450;-60
2021/10/23 03:21:11;;;;;;;6.13;3.10;;;5.80;99.90;;;;;;5073053;28;20568;-61
2021/10/23 03:23:38;;;;;;;5.90;2.80;;;5.80;99.90;;;;;;5073982;28;20448;-59
2021/10/23 03:26:05;;;;;;;3.53;2.43;;;5.70;99.90;;;;;;5072575;28;20479;-60
2021/10/23 03:28:32;;;;;;;5.87;3.07;;;5.80;99.90;;;;;;5072628;28;20534;-60
2021/10/23 03:30:59;;;;;;;6.40;2.90;;;5.70;99.90;;;;;;5072949;28;20455;-60
2021/10/23 03:33:27;;;;;;;4.53;3.17;;;5.80;99.90;;;;;;5072751;28;20607;-60
2021/10/23 03:35:54;;;;;;;3.70;3.00;;;5.90;99.90;;;;;;5086563;28;20470;-61
2021/10/23 03:38:22;;;;;;;4.70;2.50;;;5.90;99.90;;;;;;5088185;28;20887;-61
2021/10/23 03:40:50;;;;;;;4.03;2.80;;;5.80;99.90;;;;;;5092504;28;20457;-60
2021/10/23 03:43:17;;;;;;;3.83;3.10;;;5.90;99.90;;;;;;5097167;28;20502;-60
2021/10/23 03:45:45;;;;;;;9.40;3.43;;;5.80;99.90;;;;;;5077586;28;20992;-61
2021/10/23 03:48:12;;;;;;;4.67;2.90;;;5.80;99.90;;;;;;5091819;28;20537;-60
2021/10/23 03:50:39;;;;;;;3.77;2.40;;;5.70;99.90;;;;;;5094370;28;20516;-61
2021/10/23 03:53:06;;;;;;;5.90;3.20;;;5.70;99.90;;;;;;5092534;28;20481;-60
2021/10/23 03:55:34;;;;;;;5.67;2.87;;;5.70;99.90;;;;;;5104450;28;20990;-61
2021/10/23 03:58:02;;;;;;;2.83;2.07;;;5.70;99.90;;;;;;5112955;28;20878;-61
2021/10/23 04:00:29;;;;;;;7.70;2.30;;;5.70;99.90;;;;;;5089836;28;20535;-60
2021/10/23 04:02:56;;;;;;;4.60;2.80;;;5.60;99.90;;;;;;5072209;28;20446;-60
2021/10/23 04:05:23;;;;;;;4.20;2.57;;;5.60;99.90;;;;;;5104344;28;20517;-60
2021/10/23 04:07:50;;;;;;;5.07;3.03;;;5.60;99.90;;;;;;5092511;28;20528;-61
2021/10/23 04:10:17;;;;;;;6.00;2.73;;;5.70;99.90;;;;;;5092001;28;20449;-60
2021/10/23 04:12:45;;;;;;;4.50;3.27;;;5.70;99.90;;;;;;5092521;28;20535;-60
2021/10/23 04:15:12;;;;;;;4.07;3.13;;;5.60;99.90;;;;;;5104085;28;20514;-60
2021/10/23 04:17:39;;;;;;;5.17;3.10;;;5.70;99.90;;;;;;5091922;28;20500;-60
2021/10/23 04:20:08;;;;;;;5.93;3.80;;;5.60;99.90;;;;;;5092236;28;20451;-61
2021/10/23 04:22:35;;;;;;;6.90;3.33;;;5.60;99.90;;;;;;5092053;28;20496;-61
2021/10/23 04:25:02;;;;;;;5.93;3.57;;;5.70;99.90;;;;;;5112303;22;20487;-57
2021/10/23 04:27:29;;;;;;;5.57;3.40;;;5.80;99.90;;;;;;5071580;28;20510;-54
2021/10/23 04:29:57;;;;;;;8.37;3.30;;;5.90;99.90;;;;;;5071326;28;20448;-55
2021/10/23 04:32:24;;;;;;;4.70;2.90;;;5.90;99.90;;;;;;5070555;28;20986;-54
2021/10/23 04:34:51;;;;;;;4.30;3.10;;;5.80;99.90;;;;;;5070737;28;20455;-54
2021/10/23 04:37:18;;;;;;;4.63;2.70;;;5.90;99.90;;;;;;5053225;28;20450;-54
2021/10/23 04:39:45;;;;;;;5.93;2.57;;;5.80;99.90;;;;;;5052824;28;20452;-54
2021/10/23 04:42:12;;;;;;;4.40;2.90;;;5.80;99.90;;;;;;5052332;28;20443;-54
2021/10/23 04:44:39;;;;;;;5.93;3.03;;;5.80;99.90;;;;;;5055598;28;20447;-55
2021/10/23 04:47:07;;;;;;;3.03;2.77;;;5.80;99.90;;;;;;5063170;28;20881;-54
2021/10/23 04:49:34;;;;;;;6.03;2.77;;;5.80;99.90;;;;;;5060796;28;20446;-54
2021/10/23 04:52:01;;;;;;;4.70;2.93;;;5.90;99.90;;;;;;5071386;28;20505;-54
2021/10/23 04:54:28;;;;;;;3.90;2.70;;;5.90;99.90;;;;;;5069360;28;20800;-54
2021/10/23 04:56:55;;;;;;;5.10;3.00;;;5.40;99.90;;;;;;5073293;28;20473;-54
2021/10/23 04:59:22;;;;;;;6.30;3.20;;;5.20;99.90;;;;;;5068101;28;20513;-54
2021/10/23 05:01:49;;;;;;;6.07;2.93;;;4.90;99.90;;;;;;5056317;28;20451;-54
2021/10/23 05:04:17;;;;;;;6.17;2.93;;;4.80;99.90;;;;;;5054906;28;20455;-54
2021/10/23 05:06:44;;;;;;;4.47;2.83;;;4.80;99.90;;;;;;5055539;28;20468;-54
2021/10/23 05:09:11;;;;;;;4.63;3.00;;;4.90;99.90;;;;;;5055653;28;20521;-54
2021/10/23 05:11:38;;;;;;;7.40;3.63;;;5.10;99.90;;;;;;5056161;28;20455;-54
2021/10/23 05:14:05;;;;;;;4.83;2.97;;;5.30;99.90;;;;;;5055112;28;20479;-54
2021/10/23 05:16:32;;;;;;;2.90;2.50;;;5.40;99.90;;;;;;5056211;28;20472;-54
2021/10/23 05:18:59;;;;;;;4.20;2.67;;;5.50;99.90;;;;;;5056143;28;20517;-55
2021/10/23 05:21:28;;;;;;;6.10;2.67;;;5.60;99.90;;;;;;5055077;28;20455;-54
2021/10/23 05:23:57;;;;;;;8.40;3.00;;;5.70;99.90;;;;;;5055111;28;20489;-55
2021/10/23 05:26:24;;;;;;;3.53;2.90;;;5.70;99.90;;;;;;5054848;28;20476;-54
2021/10/23 05:28:51;;;;;;;4.80;3.37;;;5.70;99.90;;;;;;5054931;28;20458;-54
2021/10/23 05:31:20;;;;;;;5.63;3.03;;;5.70;99.90;;;;;;5054825;28;20447;-54
2021/10/23 05:33:47;;;;;;;3.87;2.77;;;5.80;99.90;;;;;;5054381;28;20485;-54
2021/10/23 05:36:14;;;;;;;8.13;2.83;;;5.80;99.90;;;;;;5054920;28;20481;-54
2021/10/23 05:38:42;;;;;;;5.07;2.80;;;5.80;99.90;;;;;;5055019;28;20864;-54
2021/10/23 05:41:09;;;;;;;5.73;3.50;;;5.70;99.90;;;;;;5054579;28;20508;-54
2021/10/23 05:43:36;;;;;;;3.97;2.93;;;5.70;99.90;;;;;;5055776;28;20500;-54
2021/10/23 05:46:03;;;;;;;3.90;3.20;;;5.50;99.90;;;;;;5062251;28;20518;-54
2021/10/23 05:48:30;;;;;;;9.63;3.67;;;5.60;99.90;;;;;;5063908;28;20448;-54
2021/10/23 05:50:57;;;;;;;5.47;3.37;;;5.60;99.90;;;;;;5053916;28;20455;-54
2021/10/23 05:53:24;;;;;;;8.80;3.43;;;5.50;99.90;;;;;;5054425;28;20556;-55
2021/10/23 05:55:53;;;;;;;5.90;3.90;;;5.30;99.90;;;;;;5054452;28;20467;-54
2021/10/23 05:58:20;;;;;;;6.47;3.60;;;5.50;99.90;;;;;;5054329;28;20533;-54
2021/10/23 06:00:54;;;;;;;7.67;4.00;;;5.60;99.90;;;;;;5054087;28;20487;-54
2021/10/23 06:03:23;;;;;;;5.20;3.80;;;5.60;99.90;;;;;;5065971;28;20446;-53
2021/10/23 06:05:50;;;;;;;7.67;4.03;;;5.70;99.90;;;;;;5061296;28;20848;-54
2021/10/23 06:08:17;;;;;;;4.47;3.63;;;5.80;99.90;;;;;;5052857;28;20502;-54
2021/10/23 06:10:44;;;;;;;5.40;4.20;;;5.80;99.90;;;;;;5054019;28;20506;-54
2021/10/23 06:13:15;;;;;;;7.80;3.97;;;5.90;99.90;;;;;;5053246;28;20529;-54
2021/10/23 06:15:42;;;;;;;7.33;4.03;;;6.00;99.90;;;;;;5053910;28;20471;-54
2021/10/23 06:18:08;;;;;;;5.90;4.33;;;6.00;99.90;;;;;;5071491;28;20516;-55
2021/10/23 06:20:35;;;;;;;6.10;4.40;;;6.10;99.90;;;;;;5066408;28;20479;-54
2021/10/23 06:23:02;;;;;;;8.27;4.60;;;6.10;99.90;;;;;;5054111;28;20938;-54
2021/10/23 06:25:29;;;;;;;7.30;4.03;;;6.20;99.90;;;;;;5053722;28;21009;-54
2021/10/23 06:27:57;;;;;;;5.30;3.97;;;6.10;99.90;;;;;;5053803;28;20455;-54
2021/10/23 06:30:26;;;;;;;6.27;4.00;;;6.00;99.90;;;;;;5033891;28;20454;-54
2021/10/23 06:32:55;;;;;;;5.00;3.97;;;6.10;99.90;;;;;;5033887;28;20481;-54
2021/10/23 06:35:23;;;;;;;8.23;5.57;;;6.20;99.90;;;;;;5033839;28;20504;-54
2021/10/23 06:37:50;;;;;;;12.03;7.80;;;6.30;99.90;;;;;;5054534;28;20449;-54
2021/10/23 06:40:20;;;;;;;13.80;9.00;;;6.50;99.90;;;;;;5052977;28;21065;-54
2021/10/23 06:42:47;;;;;;;13.37;8.33;;;6.60;99.90;;;;;;5053147;28;21141;-54
2021/10/23 06:45:17;;;;;;;11.10;7.27;;;6.60;99.90;;;;;;5062484;28;20463;-54
2021/10/23 06:47:45;;;;;;;12.27;5.37;;;6.70;99.90;;;;;;5053310;28;20945;-53
2021/10/23 06:50:16;;;;;;;9.27;5.30;;;6.80;99.90;;;;;;5052665;28;20478;-54
2021/10/23 06:52:44;;;;;;;7.23;4.87;;;7.00;99.90;;;;;;5053210;28;20539;-55
2021/10/23 06:55:11;;;;;;;8.30;4.80;;;7.00;99.90;;;;;;5052887;28;20474;-54
2021/10/23 06:57:38;;;;;;;9.30;4.57;;;7.00;99.90;;;;;;5053254;28;20448;-54
2021/10/23 07:00:07;;;;;;;9.13;4.80;;;7.20;99.90;;;;;;5053047;28;20512;-55
2021/10/23 07:02:39;;;;;;;5.77;3.87;;;7.40;99.90;;;;;;5051619;28;20459;-54
2021/10/23 07:05:11;;;;;;;6.23;3.87;;;7.50;99.90;;;;;;5050146;28;20485;-55
2021/10/23 07:07:39;;;;;;;4.70;3.63;;;7.60;99.90;;;;;;5061382;28;20454;-54
2021/10/23 07:10:07;;;;;;;6.07;3.47;;;7.80;99.90;;;;;;5056048;28;20957;-55
2021/10/23 07:12:35;;;;;;;5.30;3.40;;;8.00;99.90;;;;;;5052839;28;20509;-55
2021/10/23 07:15:03;;;;;;;7.20;3.43;;;8.10;99.90;;;;;;5052784;28;20528;-55
2021/10/23 07:17:30;;;;;;;8.00;3.87;;;7.50;99.90;;;;;;5052866;28;20451;-55
2021/10/23 07:19:57;;;;;;;4.90;3.47;;;7.40;99.90;;;;;;5048128;28;20885;-54
2021/10/23 07:22:25;;;;;;;5.50;3.73;;;7.60;99.90;;;;;;5052669;28;20464;-54
2021/10/23 07:24:53;;;;;;;7.37;3.70;;;8.00;99.90;;;;;;5046126;28;20475;-54
2021/10/23 07:27:20;;;;;;;5.13;3.20;;;8.30;99.90;;;;;;5052363;28;20482;-54
2021/10/23 07:29:47;;;;;;;6.10;3.73;;;8.50;99.90;;;;;;5050410;28;20505;-55
2021/10/23 07:32:14;;;;;;;4.70;3.80;;;8.60;99.90;;;;;;5051123;28;20501;-55
2021/10/23 07:34:41;;;;;;;4.97;3.43;;;8.80;99.90;;;;;;5050053;28;20484;-55
2021/10/23 07:37:08;;;;;;;4.87;3.13;;;9.10;99.90;;;;;;5053068;28;20447;-55
2021/10/23 07:39:37;;;;;;;5.30;3.20;;;9.30;99.90;;;;;;5048189;28;20528;-54
2021/10/23 07:42:05;;;;;;;3.57;3.00;;;9.60;99.90;;;;;;5038263;28;21673;-54
2021/10/23 07:44:34;;;;;;;4.40;2.77;;;9.80;99.90;;;;;;5052366;28;20505;-54
2021/10/23 07:47:01;;;;;;;4.60;3.20;;;9.90;99.90;;;;;;5052026;28;20459;-54
2021/10/23 07:49:28;;;;;;;6.10;3.50;;;10.10;99.90;;;;;;5052387;28;20452;-54
2021/10/23 07:51:55;;;;;;;7.00;4.37;;;10.10;99.90;;;;;;5051018;28;20880;-54
2021/10/23 07:54:22;;;;;;;10.10;6.43;;;9.80;99.90;;;;;;5049801;28;20487;-54
2021/10/23 07:56:51;;;;;;;7.33;4.70;;;9.60;99.90;;;;;;5043275;28;20464;-55
2021/10/23 07:59:18;;;;;;;9.30;6.57;;;9.70;99.90;;;;;;5050629;28;20945;-54
2021/10/23 08:01:45;;;;;;;9.23;6.03;;;9.40;99.90;;;;;;5051720;28;20454;-55
2021/10/23 08:04:14;;;;;;;20.50;7.57;;;9.30;99.90;;;;;;5051448;28;20512;-56
2021/10/23 08:06:41;;;;;;;9.07;5.80;;;9.50;99.90;;;;;;5052166;28;20464;-55
2021/10/23 08:09:12;;;;;;;8.03;5.67;;;9.50;99.90;;;;;;5052020;28;20440;-54
2021/10/23 08:11:41;;;;;;;8.60;5.63;;;9.70;99.90;;;;;;5051778;28;20509;-55
2021/10/23 08:14:09;;;;;;;10.57;5.87;;;9.60;99.90;;;;;;5051599;28;20475;-57
2021/10/23 08:16:38;;;;;;;8.80;5.57;;;9.60;99.90;;;;;;5051487;28;20521;-55
2021/10/23 08:19:05;;;;;;;6.70;5.00;;;9.50;99.90;;;;;;5052049;28;20447;-55
2021/10/23 08:21:32;;;;;;;8.30;5.33;;;9.50;99.90;;;;;;5051638;28;20509;-54
2021/10/23 08:23:59;;;;;;;5.73;3.93;;;9.50;99.90;;;;;;5051765;28;20448;-55
2021/10/23 08:26:27;;;;;;;5.50;3.20;;;9.50;99.90;;;;;;5051354;28;20480;-55
2021/10/23 08:28:55;;;;;;;5.30;3.27;;;9.30;99.90;;;;;;5051750;28;21020;-55
2021/10/23 08:31:23;;;;;;;5.07;3.43;;;9.30;99.90;;;;;;5050714;28;20458;-54
2021/10/23 08:33:51;;;;;;;4.70;3.33;;;9.20;99.90;;;;;;5051410;28;20475;-55
2021/10/23 08:36:18;;;;;;;4.37;3.50;;;9.20;99.90;;;;;;5051533;28;20525;-55
2021/10/23 08:38:45;;;;;;;8.10;3.73;;;9.30;99.90;;;;;;5051736;28;20451;-55
2021/10/23 08:41:12;;;;;;;4.53;3.00;;;9.70;99.90;;;;;;5046413;28;20892;-55
2021/10/23 08:43:43;;;;;;;4.17;3.00;;;10.40;99.90;;;;;;5049673;28;20522;-55
2021/10/23 08:46:13;;;;;;;6.83;3.17;;;10.90;99.90;;;;;;5047813;28;21052;-56
2021/10/23 08:48:43;;;;;;;4.37;3.23;;;11.70;99.90;;;;;;5047573;28;20841;-55
2021/10/23 08:51:12;;;;;;;5.67;3.00;;;12.60;99.90;;;;;;5045698;28;20487;-55
2021/10/23 08:53:42;;;;;;;5.00;3.20;;;13.00;99.90;;;;;;5050343;28;20479;-56
2021/10/23 08:56:10;;;;;;;3.67;3.10;;;12.60;99.90;;;;;;5050484;28;21058;-56
2021/10/23 08:58:38;;;;;;;7.47;3.30;;;13.00;99.90;;;;;;5050747;28;20514;-55
2021/10/23 09:01:07;;;;;;;4.43;2.97;;;13.80;99.90;;;;;;5050690;28;20451;-56
2021/10/23 09:03:34;;;;;;;4.23;2.93;;;14.00;99.90;;;;;;5048496;28;20482;-55
2021/10/23 09:06:03;;;;;;;8.03;3.43;;;13.90;99.90;;;;;;5051084;28;20525;-55
2021/10/23 09:08:30;;;;;;;7.10;3.23;;;13.40;99.90;;;;;;5050876;28;20472;-55
2021/10/23 09:10:58;;;;;;;6.60;3.37;;;13.20;99.90;;;;;;5050571;28;20455;-54
2021/10/23 09:13:29;;;;;;;3.67;3.30;;;13.50;99.90;;;;;;5050761;28;20996;-54
2021/10/23 09:15:57;;;;;;;5.03;3.60;;;14.10;99.90;;;;;;5048068;28;20929;-54
2021/10/23 09:18:42;;;;;;;5.27;3.37;;;13.90;99.90;;;;;;5050453;28;20209;-55
2021/10/23 09:21:21;;;;;;;3.67;3.37;;;14.00;99.90;;;;;;5047877;28;20448;-54
2021/10/23 09:23:50;;;;;;;4.20;3.40;;;14.60;99.90;;;;;;5049693;28;20969;-55
2021/10/23 09:26:31;;;;;;;4.70;3.50;;;15.00;99.90;;;;;;5050227;28;20476;-55
2021/10/23 09:29:14;;;;;;;5.73;3.50;;;15.30;99.90;;;;;;5046364;28;20460;-54
2021/10/23 09:31:44;;;;;;;5.87;3.60;;;15.20;99.90;;;;;;5045443;28;20460;-55
2021/10/23 09:34:11;;;;;;;8.60;3.67;;;15.60;99.90;;;;;;5048862;28;20562;-55
2021/10/23 09:36:45;;;;;;;7.70;3.57;;;16.00;99.90;;;;;;5050608;28;20475;-54
2021/10/23 09:39:12;;;;;;;4.47;3.30;;;16.30;99.90;;;;;;5050477;28;20454;-55
2021/10/23 09:41:39;;;;;;;5.40;2.70;;;16.40;99.90;;;;;;5050082;28;20456;-54
2021/10/23 09:44:16;;;;;;;5.63;3.40;;;16.20;99.90;;;;;;5053960;28;20459;-54
2021/10/23 09:46:54;;;;;;;4.83;3.20;;;16.10;99.90;;;;;;5053754;28;20471;-54
2021/10/23 09:49:22;;;;;;;4.83;3.23;;;14.90;99.90;;;;;;5053373;28;20455;-54
2021/10/23 09:52:06;;;;;;;6.37;3.63;;;15.00;99.90;;;;;;5053872;28;21054;-54
2021/10/23 09:54:33;;;;;;;6.50;3.30;;;15.50;99.90;;;;;;5053735;28;20483;-54
2021/10/23 09:57:08;;;;;;;5.50;3.30;;;16.10;99.90;;;;;;5053428;28;20945;-55
2021/10/23 09:59:38;;;;;;;3.83;3.43;;;16.30;99.90;;;;;;5053974;28;20485;-55
2021/10/23 10:02:05;;;;;;;4.47;3.67;;;15.00;99.90;;;;;;5053219;28;20456;-55
2021/10/23 10:04:33;;;;;;;5.23;3.37;;;14.10;99.90;;;;;;5053540;28;20475;-54
2021/10/23 10:07:04;;;;;;;4.83;3.60;;;14.20;99.90;;;;;;5053938;28;20455;-56
2021/10/23 10:09:31;;;;;;;4.80;3.67;;;15.00;99.90;;;;;;5053924;28;20953;-55
2021/10/23 10:11:58;;;;;;;5.00;3.77;;;15.20;99.90;;;;;;5053435;28;20950;-56
2021/10/23 10:14:30;;;;;;;3.70;3.30;;;15.10;99.90;;;;;;5066490;28;20490;-56
2021/10/23 10:16:59;;;;;;;3.30;2.77;;;15.40;99.90;;;;;;5062078;28;20503;-56
2021/10/23 10:19:27;;;;;;;5.17;3.37;;;15.50;99.90;;;;;;5053710;28;20456;-56
2021/10/23 10:21:55;;;;;;;3.37;2.93;;;15.40;99.90;;;;;;5053710;28;20459;-57
2021/10/23 10:24:28;;;;;;;4.47;2.90;;;15.00;99.90;;;;;;5054376;28;20447;-55
2021/10/23 10:27:00;;;;;;;3.80;2.63;;;15.30;99.90;;;;;;5106995;22;20502;-60
2021/10/23 10:29:49;;;;;;;4.40;2.70;;;15.50;99.90;;;;;;5095397;28;20951;-60
2021/10/23 10:32:21;;;;;;;7.43;3.40;;;14.50;99.90;;;;;;5098817;28;20975;-60
2021/10/23 10:35:21;;;;;;;3.93;2.80;;;13.80;99.90;;;;;;5090332;28;20478;-59
2021/10/23 10:37:57;;;;;;;6.57;2.87;;;13.30;99.90;;;;;;5070378;28;20443;-59
2021/10/23 10:43:25;;;;;;;5.40;2.50;;;13.70;99.90;;;;;;5070749;28;20439;-59
2021/10/23 10:45:55;;;;;;;2.87;2.50;;;14.20;99.90;;;;;;5072500;28;21064;-59
2021/10/23 10:48:37;;;;;;;2.77;2.57;;;14.50;99.90;;;;;;5069588;28;20447;-60
2021/10/23 10:51:19;;;;;;;4.43;2.47;;;14.70;99.90;;;;;;5072590;28;20457;-59
2021/10/23 10:54:07;;;;;;;6.43;2.83;;;14.10;99.90;;;;;;5069329;28;20517;-58
2021/10/23 10:56:48;;;;;;;4.50;2.57;;;14.20;99.90;;;;;;5072067;28;21007;-59
2021/10/23 10:59:52;;;;;;;5.27;2.90;;;13.80;99.90;;;;;;5072327;28;20952;-59
2021/10/23 11:02:34;;;;;;;3.60;2.70;;;13.60;99.90;;;;;;5070736;28;20462;-59
2021/10/23 11:05:25;;;;;;;4.63;2.93;;;13.40;99.90;;;;;;5071348;28;20445;-58
2021/10/23 11:08:11;;;;;;;2.87;2.67;;;13.30;99.90;;;;;;5061850;28;20455;-60
2021/10/23 11:11:02;;;;;;;1.80;1.70;;;13.30;99.90;;;;;;5066805;28;20453;-59
2021/10/23 11:13:31;;;;;;;2.80;1.97;;;13.30;99.90;;;;;;5073142;28;20454;-59
2021/10/23 11:15:58;;;;;;;4.60;1.90;;;13.00;99.90;;;;;;5070688;28;20545;-59
2021/10/23 11:18:27;;;;;;;4.80;2.87;;;12.80;99.90;;;;;;5072633;28;20511;-59
2021/10/23 11:20:54;;;;;;;2.73;2.00;;;12.80;99.90;;;;;;5072120;28;20548;-59
2021/10/23 11:23:22;;;;;;;2.10;1.93;;;12.70;99.90;;;;;;5071873;28;20450;-59
2021/10/23 11:25:50;;;;;;;3.87;2.00;;;12.70;99.90;;;;;;5072490;28;20475;-60
2021/10/23 11:28:17;;;;;;;2.00;1.77;;;12.80;99.90;;;;;;5069512;28;21005;-60
2021/10/23 11:30:46;;;;;;;4.80;1.90;;;13.20;99.90;;;;;;5067575;28;20489;-59
2021/10/23 11:33:17;;;;;;;3.10;2.03;;;13.10;99.90;;;;;;5072428;28;20451;-59
2021/10/23 11:35:49;;;;;;;3.53;2.30;;;13.10;99.90;;;;;;5071775;28;21019;-59
2021/10/23 11:38:21;;;;;;;2.40;2.20;;;13.10;99.90;;;;;;5072062;28;20451;-60
2021/10/23 11:40:53;;;;;;;5.70;2.23;;;13.00;99.90;;;;;;5071682;28;20443;-59
2021/10/23 11:43:21;;;;;;;2.80;1.70;;;12.70;99.90;;;;;;5071286;28;20523;-59
2021/10/23 11:45:49;;;;;;;5.97;2.13;;;12.60;99.90;;;;;;5072188;28;21035;-59
2021/10/23 11:48:18;;;;;;;2.97;1.60;;;12.50;99.90;;;;;;5072080;28;20455;-60
2021/10/23 11:50:49;;;;;;;2.90;1.80;;;12.30;99.90;;;;;;5071953;28;20454;-58
2021/10/23 11:53:18;;;;;;;3.13;1.63;;;12.50;99.90;;;;;;5072335;28;20442;-59
2021/10/23 11:55:49;;;;;;;4.90;1.93;;;12.70;99.90;;;;;;5071851;28;20566;-58
2021/10/23 11:58:17;;;;;;;3.73;2.07;;;12.70;99.90;;;;;;5072376;28;20489;-59
2021/10/23 12:00:47;;;;;;;4.40;2.03;;;12.70;99.90;;;;;;5071823;28;20447;-58
2021/10/23 12:03:19;;;;;;;6.33;2.30;;;12.50;99.90;;;;;;5072194;28;20819;-58
2021/10/23 12:05:49;;;;;;;2.80;2.07;;;12.80;99.90;;;;;;5071081;28;20494;-59
2021/10/23 12:08:21;;;;;;;3.13;1.87;;;12.80;99.90;;;;;;5070974;28;20458;-60
2021/10/23 12:11:13;;;;;;;4.23;1.30;;;12.80;99.90;;;;;;5071527;28;20533;-60
2021/10/23 12:13:52;;;;;;;2.93;1.60;;;12.80;99.90;;;;;;5062473;28;20451;-59
2021/10/23 12:16:26;;;;;;;2.20;1.50;;;12.50;99.90;;;;;;5072066;28;20486;-59
2021/10/23 12:19:00;;;;;;;2.80;1.50;;;12.40;99.90;;;;;;5072089;28;20498;-60
2021/10/23 12:21:36;;;;;;;2.50;1.90;;;12.60;99.90;;;;;;5071976;28;20450;-59
2021/10/23 12:24:13;;;;;;;4.33;1.80;;;12.80;99.90;;;;;;5072197;28;20446;-59
2021/10/23 12:26:40;;;;;;;6.10;2.43;;;12.90;99.90;;;;;;5071816;28;20543;-59
2021/10/23 12:29:09;;;;;;;3.33;1.73;;;12.80;99.90;;;;;;5071493;28;20505;-60
2021/10/23 12:31:55;;;;;;;2.83;2.13;;;12.70;99.90;;;;;;5071714;28;20447;-60
2021/10/23 12:34:25;;;;;;;2.30;1.43;;;12.80;99.90;;;;;;5071850;28;20908;-59
2021/10/23 12:36:54;;;;;;;3.03;1.73;;;12.80;99.90;;;;;;5071899;28;20459;-59
2021/10/23 12:39:22;;;;;;;2.00;1.67;;;12.70;99.90;;;;;;5071815;28;20940;-60
2021/10/23 12:41:50;;;;;;;2.87;1.63;;;12.70;99.90;;;;;;5069702;28;20454;-60
2021/10/23 12:44:19;;;;;;;4.03;1.53;;;12.60;99.90;;;;;;5071656;28;20454;-60
2021/10/23 12:46:46;;;;;;;4.97;1.70;;;12.60;99.90;;;;;;5071215;28;20466;-60
2021/10/23 12:49:13;;;;;;;2.47;1.90;;;12.60;99.90;;;;;;5071892;28;20447;-60
2021/10/23 12:51:41;;;;;;;1.57;1.47;;;12.70;99.90;;;;;;5071331;28;20451;-59
2021/10/23 12:54:09;;;;;;;1.60;1.50;;;12.60;99.90;;;;;;5071672;28;20860;-59
2021/10/23 12:56:36;;;;;;;3.00;1.80;;;12.70;99.90;;;;;;5071374;28;20859;-60
2021/10/23 12:59:03;;;;;;;2.40;1.60;;;12.70;99.90;;;;;;5071408;28;21029;-60
2021/10/23 13:01:30;;;;;;;2.50;2.10;;;12.70;99.90;;;;;;5071458;28;21006;-60
2021/10/23 13:03:57;;;;;;;3.07;1.77;;;12.60;99.90;;;;;;5069532;28;20459;-60
2021/10/23 13:06:24;;;;;;;3.03;1.93;;;12.70;99.90;;;;;;5070928;28;20463;-60